Time;durP1;ratioP1;P1;durP2;ratioP2;P2;SDS_P1;SDS_P2;PMS_P1;PMS_P2;Temp;Humidity;BMP_temperature;BMP_pressure;BME280_temperature;BME280_humidity;BME280_pressure;Samples;Min_cycle;Max_cycle;Signal;HPM_P1;HPM_P2
2023/09/27 00:00:28;;;;;;;9.73;5.53;;;15.00;99.90;;;;;;5096051;28;20060;-74
2023/09/27 00:02:55;;;;;;;9.15;6.07;;;15.00;99.90;;;;;;5095808;28;20107;-74
2023/09/27 00:05:21;;;;;;;9.70;5.78;;;14.90;99.90;;;;;;5095707;28;20033;-74
2023/09/27 00:07:46;;;;;;;12.13;5.93;;;14.90;99.90;;;;;;5095646;28;20070;-74
2023/09/27 00:10:12;;;;;;;11.25;6.05;;;14.80;99.90;;;;;;5095856;28;20435;-74
2023/09/27 00:12:39;;;;;;;7.20;5.18;;;14.70;99.90;;;;;;5095652;28;20487;-74
2023/09/27 00:15:07;;;;;;;8.07;5.35;;;14.60;99.90;;;;;;5095623;28;20070;-74
2023/09/27 00:17:33;;;;;;;7.78;5.15;;;14.60;99.90;;;;;;5095696;28;20074;-74
2023/09/27 00:19:58;;;;;;;13.23;6.38;;;14.60;99.90;;;;;;5095651;28;20032;-74
2023/09/27 00:22:24;;;;;;;16.33;6.20;;;14.60;99.90;;;;;;5096046;28;20032;-71
2023/09/27 00:24:50;;;;;;;10.25;5.68;;;14.50;99.90;;;;;;5095510;28;20099;-71
2023/09/27 00:27:16;;;;;;;9.43;5.85;;;14.50;99.90;;;;;;5096025;28;20104;-71
2023/09/27 00:29:42;;;;;;;11.13;6.18;;;14.40;99.90;;;;;;5095098;28;20495;-71
2023/09/27 00:32:08;;;;;;;9.45;5.93;;;14.40;99.90;;;;;;5077652;28;20013;-71
2023/09/27 00:34:34;;;;;;;9.35;5.57;;;14.40;99.90;;;;;;5094624;28;20024;-71
2023/09/27 00:37:00;;;;;;;8.85;5.88;;;14.30;99.90;;;;;;5094342;28;20027;-71
2023/09/27 00:39:25;;;;;;;8.52;5.57;;;14.30;99.90;;;;;;5094843;28;20028;-71
2023/09/27 00:41:51;;;;;;;11.73;6.65;;;14.30;99.90;;;;;;5095382;28;20046;-71
2023/09/27 00:44:16;;;;;;;8.30;5.88;;;14.20;99.90;;;;;;5076487;28;20024;-71
2023/09/27 00:46:43;;;;;;;8.77;5.97;;;14.20;99.90;;;;;;5076519;28;20020;-71
2023/09/27 00:49:10;;;;;;;9.50;5.75;;;14.20;99.90;;;;;;5076430;28;20089;-71
2023/09/27 00:51:37;;;;;;;9.77;6.18;;;14.10;99.90;;;;;;5094666;28;20107;-71
2023/09/27 00:54:03;;;;;;;9.40;6.43;;;14.10;99.90;;;;;;5095093;28;20035;-71
2023/09/27 00:56:30;;;;;;;9.30;5.43;;;14.10;99.90;;;;;;5094394;28;20568;-71
2023/09/27 00:58:56;;;;;;;10.95;6.28;;;14.00;99.90;;;;;;5094407;28;20020;-71
2023/09/27 01:01:25;;;;;;;11.20;6.07;;;14.00;99.90;;;;;;5094373;28;20035;-71
2023/09/27 01:03:52;;;;;;;11.73;5.63;;;13.90;99.90;;;;;;5094363;28;20024;-73
2023/09/27 01:06:18;;;;;;;13.00;6.03;;;13.90;99.90;;;;;;5076231;28;20395;-73
2023/09/27 01:08:45;;;;;;;12.48;6.30;;;13.90;99.90;;;;;;5076346;28;20077;-73
2023/09/27 01:11:11;;;;;;;12.30;5.00;;;13.90;99.90;;;;;;5094226;28;20483;-73
2023/09/27 01:13:36;;;;;;;8.13;5.25;;;13.80;99.90;;;;;;5094356;28;20016;-73
2023/09/27 01:16:02;;;;;;;10.00;5.78;;;13.80;99.90;;;;;;5094448;28;20024;-73
2023/09/27 01:18:28;;;;;;;10.32;6.28;;;13.80;99.90;;;;;;5094414;28;20415;-73
2023/09/27 01:20:53;;;;;;;9.88;6.30;;;13.80;99.90;;;;;;5094095;28;20077;-73
2023/09/27 01:23:19;;;;;;;9.48;6.25;;;13.80;99.90;;;;;;5094002;28;20138;-73
2023/09/27 01:25:48;;;;;;;13.80;6.47;;;13.80;99.90;;;;;;5094306;28;20478;-73
2023/09/27 01:28:14;;;;;;;10.98;6.13;;;13.70;99.90;;;;;;5075584;28;20085;-73
2023/09/27 01:30:39;;;;;;;9.43;6.22;;;13.70;99.90;;;;;;5093980;28;20020;-73
2023/09/27 01:33:06;;;;;;;14.95;6.47;;;13.70;99.90;;;;;;5094639;28;20020;-73
2023/09/27 01:35:33;;;;;;;8.45;5.82;;;13.60;99.90;;;;;;5093994;28;20020;-73
2023/09/27 01:37:58;;;;;;;10.18;6.45;;;13.60;99.90;;;;;;5075670;28;20031;-73
2023/09/27 01:40:27;;;;;;;9.93;6.75;;;13.60;99.90;;;;;;5094303;28;20024;-73
2023/09/27 01:42:53;;;;;;;12.85;6.30;;;13.60;99.90;;;;;;5094112;28;20054;-73
2023/09/27 01:45:19;;;;;;;11.68;6.25;;;13.60;99.90;;;;;;5094256;28;20046;-73
2023/09/27 01:47:45;;;;;;;10.02;6.15;;;;;;;;;;5093254;28;20436;-73
2023/09/27 01:50:12;;;;;;;10.35;6.07;;;13.60;99.90;;;;;;5093701;28;20066;-73
2023/09/27 01:52:38;;;;;;;12.05;5.95;;;13.60;99.90;;;;;;5094100;28;20027;-72
2023/09/27 01:55:04;;;;;;;9.35;6.38;;;13.60;99.90;;;;;;5075403;28;20027;-73
2023/09/27 01:57:30;;;;;;;11.73;6.80;;;13.50;99.90;;;;;;5093585;28;20446;-72
2023/09/27 01:59:55;;;;;;;9.02;6.03;;;13.60;99.90;;;;;;5075606;28;20024;-73
2023/09/27 02:02:21;;;;;;;10.48;6.78;;;13.60;99.90;;;;;;5093543;28;20157;-73
2023/09/27 02:04:46;;;;;;;14.48;6.50;;;13.50;99.90;;;;;;5093551;28;20024;-73
2023/09/27 02:07:12;;;;;;;9.48;6.45;;;13.50;99.90;;;;;;5094149;28;20039;-73
2023/09/27 02:09:38;;;;;;;10.68;7.07;;;13.50;99.90;;;;;;5075261;28;20024;-72
2023/09/27 02:12:03;;;;;;;10.88;7.15;;;13.50;99.90;;;;;;5093385;28;20020;-72
2023/09/27 02:14:29;;;;;;;11.02;6.35;;;13.60;99.90;;;;;;5093290;28;20016;-73
2023/09/27 02:16:55;;;;;;;10.40;6.45;;;13.50;99.90;;;;;;5075212;28;20016;-73
2023/09/27 02:19:21;;;;;;;12.25;5.82;;;13.50;99.90;;;;;;5093973;28;20016;-73
2023/09/27 02:21:46;;;;;;;10.68;6.18;;;13.50;99.90;;;;;;5093305;28;20055;-73
2023/09/27 02:24:12;;;;;;;10.38;6.63;;;13.40;99.90;;;;;;5093366;28;20048;-73
2023/09/27 02:26:38;;;;;;;9.13;5.65;;;13.40;99.90;;;;;;5093427;28;20554;-73
2023/09/27 02:29:05;;;;;;;8.82;6.38;;;13.40;99.90;;;;;;5075176;28;20507;-73
2023/09/27 02:31:30;;;;;;;9.95;6.22;;;13.40;99.90;;;;;;5093380;28;20017;-72
2023/09/27 02:33:56;;;;;;;9.73;6.32;;;13.40;99.90;;;;;;5093274;28;20035;-72
2023/09/27 02:36:22;;;;;;;10.45;6.10;;;13.30;99.90;;;;;;5093360;28;20107;-73
2023/09/27 02:38:48;;;;;;;10.77;6.05;;;13.30;99.90;;;;;;5093262;28;20051;-73
2023/09/27 02:41:13;;;;;;;8.27;5.82;;;13.30;99.90;;;;;;5075046;28;20028;-73
2023/09/27 02:43:40;;;;;;;11.65;6.43;;;13.20;99.90;;;;;;5093341;28;20055;-73
2023/09/27 02:46:06;;;;;;;9.35;6.35;;;13.20;99.90;;;;;;5093257;28;20020;-73
2023/09/27 02:48:32;;;;;;;10.50;6.25;;;13.20;99.90;;;;;;5093207;28;20028;-73
2023/09/27 02:50:58;;;;;;;11.85;6.25;;;13.20;99.90;;;;;;5093297;28;20028;-73
2023/09/27 02:53:23;;;;;;;11.35;5.95;;;13.20;99.90;;;;;;5093245;28;20024;-73
2023/09/27 02:55:49;;;;;;;9.10;5.85;;;13.10;99.90;;;;;;5074895;28;20067;-73
2023/09/27 02:58:18;;;;;;;8.05;5.75;;;13.10;99.90;;;;;;5093589;28;20017;-73
2023/09/27 03:00:44;;;;;;;11.63;5.32;;;13.10;99.90;;;;;;5097114;28;20034;-73
2023/09/27 03:03:10;;;;;;;10.85;6.45;;;13.10;99.90;;;;;;5078865;28;20390;-73
2023/09/27 03:05:35;;;;;;;9.40;5.45;;;13.00;99.90;;;;;;5096826;28;20391;-73
2023/09/27 03:08:02;;;;;;;10.95;5.25;;;13.10;99.90;;;;;;5096746;28;20024;-73
2023/09/27 03:10:28;;;;;;;8.32;5.90;;;13.00;99.90;;;;;;5096890;28;20016;-73
2023/09/27 03:12:54;;;;;;;10.80;5.82;;;12.90;99.90;;;;;;5096808;28;20031;-73
2023/09/27 03:15:19;;;;;;;9.35;5.65;;;12.90;99.90;;;;;;5078497;28;20360;-73
2023/09/27 03:17:48;;;;;;;9.80;6.72;;;12.90;99.90;;;;;;5096813;28;20424;-73
2023/09/27 03:20:16;;;;;;;12.55;6.32;;;12.90;99.90;;;;;;5096658;28;20012;-73
2023/09/27 03:22:48;;;;;;;11.60;6.40;;;12.90;99.90;;;;;;5096484;28;20027;-73
2023/09/27 03:25:16;;;;;;;11.18;5.63;;;12.90;99.90;;;;;;5096292;28;20419;-73
2023/09/27 03:27:42;;;;;;;10.75;6.07;;;12.80;99.90;;;;;;5096511;28;20016;-73
2023/09/27 03:30:08;;;;;;;9.75;5.90;;;12.80;99.90;;;;;;5096384;28;20032;-73
2023/09/27 03:32:33;;;;;;;10.27;5.88;;;12.80;99.90;;;;;;5096374;28;20024;-73
2023/09/27 03:34:59;;;;;;;8.85;6.32;;;12.80;99.90;;;;;;5096795;28;20020;-73
2023/09/27 03:37:25;;;;;;;8.90;5.45;;;12.80;99.90;;;;;;5096362;28;20031;-73
2023/09/27 03:39:52;;;;;;;9.32;5.35;;;12.80;99.90;;;;;;5096065;28;20102;-73
2023/09/27 03:42:21;;;;;;;8.02;5.45;;;12.80;99.90;;;;;;5095982;28;20498;-72
2023/09/27 03:44:50;;;;;;;7.95;5.47;;;12.80;99.90;;;;;;5096005;28;20056;-72
2023/09/27 03:47:15;;;;;;;;;;;12.70;99.90;;;;;;5096859;28;20080;-73
2023/09/27 03:49:41;;;;;;;9.88;5.80;;;12.70;99.90;;;;;;5096100;28;20010;-72
2023/09/27 03:52:08;;;;;;;11.30;6.68;;;12.80;99.90;;;;;;5096063;28;20527;-73
2023/09/27 03:54:33;;;;;;;11.85;6.30;;;12.80;99.90;;;;;;5096298;28;20032;-72
2023/09/27 03:56:59;;;;;;;7.03;4.90;;;12.70;99.90;;;;;;5095886;28;20382;-73
2023/09/27 03:59:25;;;;;;;10.23;5.40;;;12.70;99.90;;;;;;5095891;28;20035;-72
2023/09/27 04:01:51;;;;;;;8.60;5.22;;;12.70;99.90;;;;;;5095649;28;20027;-72
2023/09/27 04:04:17;;;;;;;7.78;4.82;;;12.70;99.90;;;;;;5096096;28;20463;-73
2023/09/27 04:06:43;;;;;;;9.05;5.28;;;12.60;99.90;;;;;;5095601;28;20020;-73
2023/09/27 04:09:09;;;;;;;9.20;6.10;;;12.60;99.90;;;;;;5095410;28;20429;-72
2023/09/27 04:11:35;;;;;;;10.80;6.03;;;12.60;99.90;;;;;;5095522;28;20074;-72
2023/09/27 04:14:01;;;;;;;8.45;5.25;;;12.60;99.90;;;;;;5095285;28;20024;-72
2023/09/27 04:16:30;;;;;;;8.98;6.30;;;12.60;99.90;;;;;;5095525;28;20020;-72
2023/09/27 04:18:57;;;;;;;10.23;5.88;;;12.60;99.90;;;;;;5095370;28;20409;-72
2023/09/27 04:21:23;;;;;;;9.90;5.95;;;12.70;99.90;;;;;;5095974;28;20024;-72
2023/09/27 04:23:56;;;;;;;10.05;6.13;;;12.70;99.90;;;;;;5077027;28;20038;-72
2023/09/27 04:26:25;;;;;;;11.63;5.93;;;12.70;99.90;;;;;;5095090;28;20020;-73
2023/09/27 04:28:52;;;;;;;9.30;5.68;;;;;;;;;;5095183;28;20118;-73
2023/09/27 04:31:18;;;;;;;7.55;5.03;;;12.70;99.90;;;;;;5094946;28;20028;-73
2023/09/27 04:33:44;;;;;;;8.82;5.38;;;12.70;99.90;;;;;;5095051;28;20027;-73
2023/09/27 04:36:17;;;;;;;9.50;5.88;;;12.60;99.90;;;;;;5094992;28;20012;-73
2023/09/27 04:38:46;;;;;;;9.80;5.43;;;12.60;99.90;;;;;;5095334;28;20028;-73
2023/09/27 04:41:14;;;;;;;9.32;5.90;;;12.60;99.90;;;;;;5095572;28;20106;-72
2023/09/27 04:43:41;;;;;;;9.30;5.47;;;12.60;99.90;;;;;;5076711;28;20111;-73
2023/09/27 04:46:07;;;;;;;7.28;4.53;;;12.70;99.90;;;;;;5094842;28;20507;-73
2023/09/27 04:48:33;;;;;;;8.45;5.65;;;12.60;99.90;;;;;;5094890;28;20094;-73
2023/09/27 04:50:59;;;;;;;7.95;5.70;;;12.60;99.90;;;;;;5076498;28;20073;-73
2023/09/27 04:53:25;;;;;;;9.88;6.05;;;12.70;99.90;;;;;;5094654;28;20447;-73
2023/09/27 04:55:52;;;;;;;8.32;5.30;;;12.60;99.90;;;;;;5094446;28;20028;-73
2023/09/27 04:58:17;;;;;;;8.82;5.75;;;12.60;99.90;;;;;;5094532;28;20102;-73
2023/09/27 05:00:43;;;;;;;12.30;6.45;;;12.60;99.90;;;;;;5094672;28;20454;-73
2023/09/27 05:03:08;;;;;;;10.32;5.47;;;12.60;99.90;;;;;;5094615;28;20048;-73
2023/09/27 05:05:34;;;;;;;12.90;6.15;;;12.60;99.90;;;;;;5094418;28;20031;-73
2023/09/27 05:07:59;;;;;;;11.02;6.32;;;12.60;99.90;;;;;;5094623;28;20028;-73
2023/09/27 05:10:25;;;;;;;9.30;5.57;;;12.60;99.90;;;;;;5095237;28;20028;-73
2023/09/27 05:12:50;;;;;;;8.35;5.47;;;12.50;99.90;;;;;;5094382;28;20031;-73
2023/09/27 05:15:16;;;;;;;7.72;4.88;;;12.60;99.90;;;;;;5094296;28;20383;-73
2023/09/27 05:17:41;;;;;;;8.45;5.60;;;12.50;99.90;;;;;;5094816;28;20066;-72
2023/09/27 05:20:10;;;;;;;7.60;5.00;;;12.50;99.90;;;;;;5076200;28;20475;-72
2023/09/27 05:22:40;;;;;;;9.48;5.57;;;12.50;99.90;;;;;;5075448;28;20113;-73
2023/09/27 05:25:07;;;;;;;9.07;5.70;;;12.40;99.90;;;;;;5094678;28;20093;-74
2023/09/27 05:27:34;;;;;;;9.27;5.45;;;12.40;99.90;;;;;;5094326;28;20021;-73
2023/09/27 05:30:00;;;;;;;14.15;6.10;;;12.50;99.90;;;;;;5076193;28;20016;-73
2023/09/27 05:32:26;;;;;;;7.85;5.10;;;12.40;99.90;;;;;;5076225;28;20077;-73
2023/09/27 05:34:52;;;;;;;9.60;5.72;;;12.40;99.90;;;;;;5093983;28;20020;-73
2023/09/27 05:37:18;;;;;;;9.93;5.90;;;12.40;99.90;;;;;;5093960;28;20054;-73
2023/09/27 05:39:44;;;;;;;7.38;5.03;;;12.40;99.90;;;;;;5094566;28;20028;-73
2023/09/27 05:42:09;;;;;;;8.32;6.05;;;12.40;99.90;;;;;;5075804;28;20115;-73
2023/09/27 05:44:35;;;;;;;11.80;7.25;;;12.40;99.90;;;;;;5093940;28;20073;-73
2023/09/27 05:47:00;;;;;;;11.50;7.07;;;12.40;99.90;;;;;;5093994;28;20035;-73
2023/09/27 05:49:26;;;;;;;12.63;7.45;;;12.50;99.90;;;;;;5093821;28;20107;-73
2023/09/27 05:51:52;;;;;;;12.60;7.53;;;12.60;99.90;;;;;;5094439;28;20479;-73
2023/09/27 05:54:21;;;;;;;11.93;7.85;;;12.80;99.90;;;;;;5093681;28;20019;-73
2023/09/27 05:56:51;;;;;;;13.82;8.13;;;12.80;99.90;;;;;;5094423;28;20024;-73
2023/09/27 05:59:17;;;;;;;13.25;7.97;;;12.80;99.90;;;;;;5076435;28;20017;-73
2023/09/27 06:01:43;;;;;;;12.70;8.38;;;12.90;99.90;;;;;;5094186;28;20031;-72
2023/09/27 06:04:09;;;;;;;12.75;8.45;;;13.10;99.90;;;;;;5093585;28;20024;-73
2023/09/27 06:06:36;;;;;;;16.55;8.65;;;13.20;99.90;;;;;;5093219;28;20032;-73
2023/09/27 06:09:11;;;;;;;15.05;7.95;;;13.20;99.90;;;;;;5093407;28;20013;-73
2023/09/27 06:11:37;;;;;;;14.15;8.45;;;13.20;99.90;;;;;;5094082;28;20085;-73
2023/09/27 06:14:05;;;;;;;13.88;8.95;;;13.30;99.90;;;;;;5075088;28;20047;-73
2023/09/27 06:16:31;;;;;;;15.25;8.52;;;13.40;99.90;;;;;;5091938;28;20050;-73
2023/09/27 06:18:58;;;;;;;18.35;8.82;;;13.40;99.90;;;;;;5092182;28;20020;-73
2023/09/27 06:21:23;;;;;;;12.95;8.38;;;13.50;99.90;;;;;;5092197;28;20027;-73
2023/09/27 06:23:49;;;;;;;14.68;8.85;;;13.50;99.90;;;;;;5093797;28;20391;-73
2023/09/27 06:26:15;;;;;;;13.90;8.50;;;13.60;99.90;;;;;;5092201;28;20507;-73
2023/09/27 06:28:40;;;;;;;13.05;8.23;;;13.60;99.90;;;;;;5093311;28;20020;-73
2023/09/27 06:31:06;;;;;;;18.35;8.52;;;13.70;99.90;;;;;;5093402;28;20036;-73
2023/09/27 06:33:33;;;;;;;13.82;8.77;;;13.70;99.90;;;;;;5077854;28;20487;-73
2023/09/27 06:35:59;;;;;;;17.73;8.50;;;13.80;99.90;;;;;;5097691;28;20103;-73
2023/09/27 06:38:25;;;;;;;15.60;8.10;;;13.90;99.90;;;;;;5097658;28;20024;-73
2023/09/27 06:40:51;;;;;;;13.95;8.50;;;13.90;99.90;;;;;;5097367;28;20032;-73
2023/09/27 06:43:16;;;;;;;13.30;8.15;;;14.00;99.90;;;;;;5096978;28;20054;-73
2023/09/27 06:45:42;;;;;;;11.88;8.02;;;14.10;99.90;;;;;;5096947;28;20020;-73
2023/09/27 06:48:09;;;;;;;22.77;9.48;;;;;;;;;;5097010;28;20020;-73
2023/09/27 06:50:35;;;;;;;13.32;7.85;;;14.30;99.90;;;;;;5096786;28;20032;-73
2023/09/27 06:53:00;;;;;;;13.15;8.60;;;14.20;99.90;;;;;;5096865;28;20493;-73
2023/09/27 06:55:26;;;;;;;11.65;7.80;;;14.30;99.90;;;;;;5097278;28;20111;-73
2023/09/27 06:57:52;;;;;;;12.75;8.15;;;14.30;99.90;;;;;;5097318;28;20021;-73
2023/09/27 07:00:18;;;;;;;12.55;8.60;;;14.40;99.90;;;;;;5097324;28;20024;-73
2023/09/27 07:02:52;;;;;;;13.18;8.70;;;14.40;99.90;;;;;;5096710;28;20028;-73
2023/09/27 07:05:20;;;;;;;15.32;8.23;;;14.50;99.90;;;;;;5096611;28;20077;-73
2023/09/27 07:07:47;;;;;;;21.35;9.32;;;14.60;99.90;;;;;;5096782;28;20027;-73
2023/09/27 07:10:12;;;;;;;17.70;8.43;;;14.60;99.90;;;;;;5096616;28;20020;-73
2023/09/27 07:12:38;;;;;;;13.65;8.43;;;14.60;99.90;;;;;;5096682;28;20099;-73
2023/09/27 07:15:10;;;;;;;14.95;9.70;;;14.70;99.90;;;;;;5096771;28;20491;-73
2023/09/27 07:17:37;;;;;;;16.75;8.45;;;14.70;99.90;;;;;;5096902;28;20031;-73
2023/09/27 07:20:13;;;;;;;14.93;8.38;;;14.80;99.90;;;;;;5096575;28;20418;-73
2023/09/27 07:22:39;;;;;;;11.32;8.55;;;14.90;99.90;;;;;;5078212;28;20429;-73
2023/09/27 07:25:09;;;;;;;13.38;8.98;;;15.00;99.90;;;;;;5096768;28;20099;-73
2023/09/27 07:27:35;;;;;;;14.85;8.68;;;15.40;99.90;;;;;;5096299;28;20035;-73
2023/09/27 07:30:01;;;;;;;16.65;9.23;;;15.30;99.90;;;;;;5096711;28;20047;-73
2023/09/27 07:32:30;;;;;;;12.98;8.93;;;;;;;;;;5096243;28;20436;-73
2023/09/27 07:34:58;;;;;;;11.30;7.45;;;15.70;99.90;;;;;;5096718;28;20031;-73
2023/09/27 07:37:24;;;;;;;15.00;8.10;;;15.90;99.90;;;;;;5096237;28;20016;-73
2023/09/27 07:39:50;;;;;;;12.07;8.00;;;16.00;99.90;;;;;;5096081;28;20081;-73
2023/09/27 07:42:15;;;;;;;14.63;9.13;;;16.00;99.90;;;;;;5077785;28;20028;-73
2023/09/27 07:44:42;;;;;;;14.65;9.48;;;16.10;99.90;;;;;;5095420;28;20027;-73
2023/09/27 07:47:08;;;;;;;11.63;8.57;;;16.10;99.90;;;;;;5095960;28;20103;-73
2023/09/27 07:49:34;;;;;;;14.90;8.23;;;16.10;99.90;;;;;;5095969;28;20075;-73
2023/09/27 07:51:59;;;;;;;13.68;8.43;;;16.20;99.90;;;;;;5095852;28;20077;-73
2023/09/27 07:54:25;;;;;;;11.82;7.88;;;16.40;99.90;;;;;;5095586;28;20074;-73
2023/09/27 07:56:50;;;;;;;13.60;8.00;;;16.40;99.90;;;;;;5096351;28;20024;-73
2023/09/27 07:59:16;;;;;;;14.13;8.55;;;16.50;99.90;;;;;;5077583;28;20551;-73
2023/09/27 08:01:41;;;;;;;13.57;8.10;;;16.60;99.90;;;;;;5095713;28;20028;-73
2023/09/27 08:04:12;;;;;;;14.70;7.90;;;17.00;99.90;;;;;;5077436;28;20024;-73
2023/09/27 08:06:38;;;;;;;16.65;9.07;;;16.90;99.90;;;;;;5095545;28;20471;-72
2023/09/27 08:09:06;;;;;;;11.25;8.13;;;17.20;99.90;;;;;;5095583;28;20487;-73
2023/09/27 08:11:31;;;;;;;14.55;8.45;;;17.30;99.90;;;;;;5095363;28;20053;-73
2023/09/27 08:13:57;;;;;;;16.00;8.55;;;17.60;99.90;;;;;;5077179;28;20429;-73
2023/09/27 08:16:23;;;;;;;14.30;9.00;;;17.70;99.90;;;;;;5095822;28;20030;-73
2023/09/27 08:18:49;;;;;;;15.07;9.20;;;17.90;99.90;;;;;;5095372;28;20095;-73
2023/09/27 08:21:14;;;;;;;14.40;8.68;;;18.00;99.90;;;;;;5095227;28;20454;-73
2023/09/27 08:23:41;;;;;;;13.40;8.30;;;18.00;99.90;;;;;;5095286;28;20020;-72
2023/09/27 08:26:09;;;;;;;15.10;8.68;;;18.20;99.90;;;;;;5095118;28;20389;-73
2023/09/27 08:28:34;;;;;;;15.63;9.00;;;18.30;99.90;;;;;;5094996;28;20054;-72
2023/09/27 08:31:03;;;;;;;11.57;7.80;;;18.40;99.90;;;;;;5095064;28;20480;-73
2023/09/27 08:33:30;;;;;;;13.73;8.13;;;18.70;99.90;;;;;;5095107;28;20017;-72
2023/09/27 08:35:55;;;;;;;24.00;8.55;;;18.70;99.90;;;;;;5094938;28;20024;-73
2023/09/27 08:38:21;;;;;;;15.27;8.25;;;18.90;99.90;;;;;;5095058;28;20391;-73
2023/09/27 08:40:48;;;;;;;14.48;7.53;;;18.90;99.90;;;;;;5094874;28;20031;-73
2023/09/27 08:43:17;;;;;;;12.50;7.63;;;18.90;99.90;;;;;;5094772;28;20387;-73
2023/09/27 08:45:45;;;;;;;11.65;7.55;;;18.90;99.90;;;;;;5094733;28;20512;-73
2023/09/27 08:48:13;;;;;;;14.43;7.55;;;18.90;99.90;;;;;;5094813;28;20360;-73
2023/09/27 08:50:38;;;;;;;10.82;6.72;;;18.90;99.90;;;;;;5094869;28;20033;-73
2023/09/27 08:53:04;;;;;;;14.05;7.22;;;19.00;99.90;;;;;;5094933;28;20020;-73
2023/09/27 08:55:30;;;;;;;20.80;7.95;;;19.00;99.90;;;;;;5075985;28;20074;-73
2023/09/27 08:57:56;;;;;;;12.63;7.30;;;19.00;99.90;;;;;;5093877;28;20074;-72
2023/09/27 09:00:26;;;;;;;14.43;7.18;;;19.00;99.90;;;;;;5094508;28;20032;-73
2023/09/27 09:02:57;;;;;;;14.48;7.07;;;19.10;99.90;;;;;;5076299;28;20017;-73
2023/09/27 09:05:24;;;;;;;16.77;8.20;;;19.10;99.90;;;;;;5094449;28;20531;-73
2023/09/27 09:07:53;;;;;;;12.40;6.90;;;19.10;99.90;;;;;;5094420;28;20020;-73
2023/09/27 09:10:19;;;;;;;11.48;6.95;;;19.10;99.90;;;;;;5094394;28;20020;-73
2023/09/27 09:12:47;;;;;;;11.57;6.35;;;19.10;99.90;;;;;;5094347;28;20035;-73
2023/09/27 09:15:29;;;;;;;18.90;6.80;;;19.10;99.90;;;;;;5094449;28;20023;-73
2023/09/27 09:17:57;;;;;;;10.85;6.75;;;19.00;99.90;;;;;;5094465;28;20034;-73
2023/09/27 09:21:08;;;;;;;12.52;6.20;;;19.10;99.90;;;;;;5094218;28;20016;-73
2023/09/27 09:23:33;;;;;;;10.00;5.97;;;19.10;99.90;;;;;;5088286;28;20035;-73
2023/09/27 09:26:11;;;;;;;12.88;6.30;;;19.10;99.90;;;;;;5094118;28;20035;-73
2023/09/27 09:28:59;;;;;;;9.55;5.57;;;19.20;99.90;;;;;;5094240;28;20114;-73
2023/09/27 09:31:29;;;;;;;11.32;6.35;;;19.20;99.90;;;;;;5075863;28;20035;-73
2023/09/27 09:34:08;;;;;;;13.63;6.57;;;19.20;99.90;;;;;;5094422;28;20043;-73
2023/09/27 09:36:35;;;;;;;10.85;5.45;;;19.30;99.90;;;;;;5094631;28;20024;-73
2023/09/27 09:39:14;;;;;;;9.93;5.47;;;19.30;99.90;;;;;;5093894;28;20020;-72
2023/09/27 09:41:44;;;;;;;18.70;6.25;;;19.30;99.90;;;;;;5093902;28;20107;-73
2023/09/27 09:44:23;;;;;;;15.82;5.85;;;19.40;99.90;;;;;;5075676;28;20035;-73
2023/09/27 09:46:51;;;;;;;10.57;4.63;;;19.50;99.90;;;;;;5093778;28;20016;-73
2023/09/27 09:49:17;;;;;;;14.82;5.28;;;19.60;99.90;;;;;;5093751;28;20103;-73
2023/09/27 09:51:47;;;;;;;12.18;5.60;;;19.70;99.90;;;;;;5093565;28;20038;-73
2023/09/27 09:54:17;;;;;;;11.27;5.90;;;19.80;99.90;;;;;;5093743;28;20078;-73
2023/09/27 09:56:44;;;;;;;11.30;5.20;;;19.80;99.90;;;;;;5093909;28;20059;-73
2023/09/27 09:59:13;;;;;;;11.25;5.20;;;19.90;99.90;;;;;;5093693;28;20510;-73
2023/09/27 10:01:39;;;;;;;;;;;20.00;99.90;;;;;;5094011;28;20031;-73
2023/09/27 10:04:05;;;;;;;8.88;4.20;;;20.10;99.90;;;;;;5075375;28;20046;-73
2023/09/27 10:06:33;;;;;;;10.07;5.28;;;20.10;99.90;;;;;;5093605;28;20111;-73
2023/09/27 10:09:01;;;;;;;9.30;4.97;;;20.20;99.90;;;;;;5075137;28;20020;-73
2023/09/27 10:11:27;;;;;;;11.52;5.00;;;20.20;99.90;;;;;;5093531;28;20023;-73
2023/09/27 10:13:54;;;;;;;8.90;4.57;;;20.30;99.90;;;;;;5093561;28;20016;-73
2023/09/27 10:16:23;;;;;;;9.13;4.38;;;20.40;99.90;;;;;;5093397;28;20437;-73
2023/09/27 10:18:48;;;;;;;;;;;20.60;99.90;;;;;;5093893;28;20020;-73
2023/09/27 10:21:15;;;;;;;16.92;4.60;;;20.80;99.90;;;;;;5093419;28;19908;-73
2023/09/27 10:23:46;;;;;;;8.60;3.72;;;21.00;99.90;;;;;;5093349;28;20012;-73
2023/09/27 10:26:19;;;;;;;7.72;4.05;;;21.20;99.90;;;;;;5093315;28;20121;-73
2023/09/27 10:29:03;;;;;;;6.32;3.28;;;21.50;99.90;;;;;;5093895;28;20107;-73
2023/09/27 10:31:34;;;;;;;6.88;3.90;;;21.70;99.90;;;;;;5093458;28;20028;-73
2023/09/27 10:34:00;;;;;;;7.32;4.07;;;;;;;;;;5093187;28;20382;-73
2023/09/27 10:36:26;;;;;;;6.90;3.65;;;21.80;99.90;;;;;;5093674;28;20025;-73
2023/09/27 10:38:52;;;;;;;9.60;4.07;;;21.80;99.90;;;;;;5093232;28;20104;-73
2023/09/27 10:41:33;;;;;;;9.10;3.90;;;21.70;99.90;;;;;;5093087;28;20448;-73
2023/09/27 10:43:59;;;;;;;7.53;3.40;;;21.60;99.90;;;;;;5093181;28;20077;-73
2023/09/27 10:46:25;;;;;;;6.45;3.67;;;21.40;99.90;;;;;;5093291;28;20451;-72
2023/09/27 10:48:55;;;;;;;8.10;4.35;;;21.60;99.90;;;;;;5075184;28;20036;-73
2023/09/27 10:51:22;;;;;;;10.30;3.22;;;21.50;99.90;;;;;;5092956;28;20055;-73
2023/09/27 10:53:48;;;;;;;7.35;3.78;;;21.50;99.90;;;;;;5093142;28;20039;-73
2023/09/27 10:56:15;;;;;;;9.00;3.40;;;21.50;99.90;;;;;;5093060;28;20047;-73
2023/09/27 10:58:50;;;;;;;8.57;3.97;;;21.50;99.90;;;;;;5093177;28;20020;-73
2023/09/27 11:01:20;;;;;;;5.03;3.10;;;21.60;99.90;;;;;;5093135;28;20065;-73
2023/09/27 11:03:45;;;;;;;6.03;3.42;;;21.70;99.90;;;;;;5075088;28;20119;-73
2023/09/27 11:06:12;;;;;;;9.35;3.58;;;22.00;99.90;;;;;;5093360;28;20044;-73
2023/09/27 11:08:40;;;;;;;5.95;3.28;;;22.30;99.90;;;;;;5093171;28;20084;-73
2023/09/27 11:11:11;;;;;;;9.30;2.63;;;22.70;99.90;;;;;;5093672;28;20024;-73
2023/09/27 11:13:44;;;;;;;5.07;2.55;;;23.10;99.90;;;;;;5093164;28;20024;-73
2023/09/27 11:16:15;;;;;;;3.47;2.47;;;23.60;99.90;;;;;;5093264;28;20027;-73
2023/09/27 11:18:49;;;;;;;10.90;2.08;;;24.00;99.90;;;;;;5074809;28;20435;-73
2023/09/27 11:21:16;;;;;;;4.82;1.83;;;24.10;99.90;;;;;;5078192;28;20024;-73
2023/09/27 11:23:54;;;;;;;5.28;2.58;;;24.20;99.90;;;;;;5096670;28;20483;-73
2023/09/27 11:26:20;;;;;;;;;;;24.10;99.90;;;;;;5097636;28;20020;-73
2023/09/27 11:29:02;;;;;;;2.90;1.65;;;24.10;99.90;;;;;;5096431;28;20323;-73
2023/09/27 11:31:30;;;;;;;4.88;1.88;;;24.10;99.90;;;;;;5078326;28;20140;-73
2023/09/27 11:34:14;;;;;;;3.92;1.75;;;24.20;99.90;;;;;;5096362;28;20024;-73
2023/09/27 11:36:51;;;;;;;3.20;1.55;;;24.10;99.90;;;;;;5096305;28;20062;-72
2023/09/27 11:39:19;;;;;;;3.15;1.95;;;24.00;99.90;;;;;;5078318;28;20431;-73
2023/09/27 11:41:45;;;;;;;3.30;1.85;;;23.90;99.90;;;;;;5096405;28;20032;-73
2023/09/27 11:44:18;;;;;;;2.45;1.05;;;24.00;99.90;;;;;;5096296;28;20028;-73
2023/09/27 11:46:44;;;;;;;2.92;1.17;;;24.40;99.90;;;;;;5096242;28;20372;-73
2023/09/27 11:49:09;;;;;;;2.00;1.30;;;24.60;99.90;;;;;;5078514;28;20020;-73
2023/09/27 11:51:35;;;;;;;3.83;1.70;;;24.80;99.90;;;;;;5096121;28;20472;-73
2023/09/27 11:54:05;;;;;;;3.00;1.30;;;25.00;99.90;;;;;;5095907;28;20047;-73
2023/09/27 11:56:31;;;;;;;3.65;0.82;;;25.10;99.90;;;;;;5095710;28;20395;-73
2023/09/27 11:58:56;;;;;;;5.35;1.27;;;25.30;99.90;;;;;;5095911;28;20020;-73
2023/09/27 12:01:23;;;;;;;1.73;0.60;;;25.30;99.90;;;;;;5095911;28;20031;-73
2023/09/27 12:03:49;;;;;;;2.13;0.88;;;25.40;99.90;;;;;;5096435;28;20020;-73
2023/09/27 12:06:14;;;;;;;4.72;0.82;;;25.60;99.90;;;;;;5096079;28;20514;-73
2023/09/27 12:08:40;;;;;;;2.83;1.08;;;25.60;99.90;;;;;;5096007;28;20024;-73
2023/09/27 12:11:06;;;;;;;3.95;1.35;;;25.60;99.90;;;;;;5096179;28;20028;-73
2023/09/27 12:13:32;;;;;;;2.05;0.90;;;25.80;99.90;;;;;;5095658;28;20020;-73
2023/09/27 12:15:58;;;;;;;2.92;1.05;;;26.00;99.90;;;;;;5095622;28;20024;-73
2023/09/27 12:18:23;;;;;;;4.47;1.35;;;26.00;99.90;;;;;;5095674;28;20060;-73
2023/09/27 12:20:49;;;;;;;1.98;0.95;;;26.10;99.90;;;;;;5095492;28;20068;-73
2023/09/27 12:23:14;;;;;;;2.58;0.90;;;26.20;99.90;;;;;;5095269;28;20114;-73
2023/09/27 12:25:41;;;;;;;2.38;1.33;;;26.30;99.90;;;;;;5095266;28;20024;-73
2023/09/27 12:28:07;;;;;;;2.80;0.75;;;26.30;99.90;;;;;;5095575;28;20027;-73
2023/09/27 12:30:33;;;;;;;1.48;0.57;;;26.40;99.90;;;;;;5076734;28;20024;-73
2023/09/27 12:32:58;;;;;;;3.50;1.65;;;26.50;99.90;;;;;;5077152;28;20016;-73
2023/09/27 12:35:24;;;;;;;2.47;1.13;;;26.60;99.90;;;;;;5076920;28;20169;-73
2023/09/27 12:37:50;;;;;;;3.42;1.10;;;26.60;99.90;;;;;;5095775;28;20486;-73
2023/09/27 12:40:15;;;;;;;2.17;0.80;;;26.70;99.90;;;;;;5095385;28;20110;-73
2023/09/27 12:42:41;;;;;;;4.93;1.40;;;26.70;99.90;;;;;;5095439;28;20028;-73